createdAt,value
2022-08-12T00:00:27.768Z,1.55
2022-08-12T00:03:20.843Z,1.60
2022-08-12T00:06:11.621Z,1.30
2022-08-12T00:09:02.577Z,1.45
2022-08-12T00:11:54.206Z,1.42
2022-08-12T00:14:45.177Z,1.60
2022-08-12T00:17:39.185Z,1.40
2022-08-12T00:20:30.316Z,1.70
2022-08-12T00:23:21.377Z,1.88
2022-08-12T00:26:22.607Z,1.75
2022-08-12T00:29:15.231Z,1.50
2022-08-12T00:32:05.587Z,1.70
2022-08-12T00:43:15.272Z,2.03
2022-08-12T00:46:07.531Z,1.73
2022-08-12T00:48:41.225Z,1.63
2022-08-12T00:51:14.552Z,1.95
2022-08-12T00:53:48.352Z,1.33
2022-08-12T00:56:22.977Z,1.60
2022-08-12T00:58:57.125Z,2.05
2022-08-12T01:01:30.499Z,1.80
2022-08-12T01:04:43.883Z,1.77
2022-08-12T01:07:37.418Z,1.85
2022-08-12T01:10:32.651Z,1.88
2022-08-12T01:13:07.435Z,2.17
2022-08-12T01:15:57.840Z,1.83
2022-08-12T01:18:33.777Z,2.03
2022-08-12T01:21:27.039Z,3.03
2022-08-12T01:24:31.190Z,2.17
2022-08-12T01:27:07.649Z,2.10
2022-08-12T01:29:48.774Z,1.80
2022-08-12T01:32:23.770Z,2.08
2022-08-12T01:35:07.931Z,1.83
2022-08-12T01:38:19.597Z,2.13
2022-08-12T01:41:04.596Z,2.50
2022-08-12T01:43:38.165Z,2.00
2022-08-12T01:46:29.711Z,2.30
2022-08-12T01:49:34.102Z,1.75
2022-08-12T01:52:20.664Z,1.85
2022-08-12T01:54:54.843Z,1.75
2022-08-12T01:58:53.001Z,2.28
2022-08-12T02:01:34.981Z,2.22
2022-08-12T02:04:37.889Z,2.25
2022-08-12T02:08:14.590Z,2.70
2022-08-12T02:11:23.254Z,2.38
2022-08-12T02:14:49.677Z,2.47
2022-08-12T02:17:57.817Z,2.28
2022-08-12T02:20:52.442Z,2.40
2022-08-12T02:23:28.116Z,2.40
2022-08-12T02:26:09.017Z,2.10
2022-08-12T02:28:41.887Z,2.35
2022-08-12T02:31:15.089Z,3.08
2022-08-12T02:33:47.759Z,2.15
2022-08-12T02:36:19.745Z,2.90
2022-08-12T02:38:55.382Z,2.40
2022-08-12T02:41:32.704Z,2.45
2022-08-12T02:44:09.901Z,2.08
2022-08-12T02:46:50.396Z,2.40
2022-08-12T02:49:36.316Z,2.50
2022-08-12T02:52:09.094Z,2.15
2022-08-12T02:54:44.659Z,2.15
2022-08-12T02:57:18.160Z,1.98
2022-08-12T02:59:50.922Z,3.53
2022-08-12T03:02:28.188Z,2.35
2022-08-12T03:05:04.500Z,2.47
2022-08-12T03:07:56.455Z,2.60
2022-08-12T03:10:39.676Z,2.75
2022-08-12T03:13:17.782Z,2.67
2022-08-12T03:15:50.304Z,2.95
2022-08-12T03:18:33.300Z,3.75
2022-08-12T03:21:05.531Z,3.58
2022-08-12T03:23:41.969Z,4.47
2022-08-12T03:26:15.047Z,4.60
2022-08-12T03:28:50.655Z,3.92
2022-08-12T03:31:32.461Z,3.60
2022-08-12T03:34:08.974Z,3.40
2022-08-12T03:36:42.864Z,4.68
2022-08-12T03:39:18.415Z,5.07
2022-08-12T03:42:28.561Z,5.70
2022-08-12T03:45:52.213Z,5.28
2022-08-12T03:48:44.472Z,4.00
2022-08-12T03:51:34.839Z,3.38
2022-08-12T03:57:15.504Z,2.80
2022-08-12T04:00:05.813Z,2.75
2022-08-12T04:05:13.970Z,2.90
2022-08-12T04:07:58.111Z,2.58
2022-08-12T04:10:49.391Z,3.05
2022-08-12T04:13:24.073Z,2.65
2022-08-12T04:15:56.716Z,3.30
2022-08-12T04:18:29.652Z,2.67
2022-08-12T04:21:02.963Z,3.30
2022-08-12T04:23:35.725Z,3.00
2022-08-12T04:26:08.051Z,3.20
2022-08-12T04:28:40.016Z,3.08
2022-08-12T04:31:14.312Z,8.45
2022-08-12T04:33:47.217Z,3.85
2022-08-12T04:36:19.489Z,3.35
2022-08-12T04:38:59.554Z,3.08
2022-08-12T04:41:32.464Z,3.20
2022-08-12T04:44:05.997Z,3.08
2022-08-12T04:46:38.452Z,3.10
2022-08-12T04:49:10.872Z,3.47
2022-08-12T04:51:43.363Z,2.97
2022-08-12T04:54:28.932Z,2.72
2022-08-12T04:57:03.100Z,3.05
2022-08-12T04:59:47.218Z,3.20
2022-08-12T05:02:22.948Z,3.13
2022-08-12T05:04:56.371Z,3.08
2022-08-12T05:07:34.180Z,3.67
2022-08-12T05:10:21.265Z,3.05
2022-08-12T05:13:11.500Z,4.00
2022-08-12T05:16:02.613Z,4.97
2022-08-12T05:18:39.767Z,3.53
2022-08-12T05:21:11.938Z,3.55
2022-08-12T05:23:43.944Z,3.28
2022-08-12T05:26:15.985Z,3.35
2022-08-12T05:28:47.947Z,2.80
2022-08-12T05:31:42.563Z,3.03
2022-08-12T05:34:14.751Z,3.15
2022-08-12T05:36:46.782Z,2.80
2022-08-12T05:39:18.856Z,2.95
2022-08-12T05:41:50.813Z,2.60
2022-08-12T05:44:22.834Z,3.03
2022-08-12T05:46:54.792Z,2.85
2022-08-12T05:49:27.238Z,3.00
2022-08-12T05:51:59.314Z,2.75
2022-08-12T05:54:54.628Z,2.97
2022-08-12T05:57:23.309Z,3.30
2022-08-12T05:59:55.380Z,2.92
2022-08-12T06:02:27.885Z,3.13
2022-08-12T06:05:00.422Z,2.83
2022-08-12T06:08:00.311Z,2.58
2022-08-12T06:10:32.187Z,3.90
2022-08-12T06:13:06.956Z,3.08
2022-08-12T06:15:41.205Z,2.70
2022-08-12T06:18:16.306Z,2.63
2022-08-12T06:20:49.688Z,2.50
2022-08-12T06:23:28.746Z,4.20
2022-08-12T06:26:01.409Z,2.60
2022-08-12T06:28:33.711Z,3.30
2022-08-12T06:35:22.716Z,2.88
2022-08-12T06:36:51.060Z,3.22
2022-08-12T06:39:24.296Z,2.55
2022-08-12T06:42:32.865Z,2.53
2022-08-12T06:45:07.352Z,2.42
2022-08-12T06:47:40.523Z,2.78
2022-08-12T06:50:15.886Z,2.53
2022-08-12T06:52:48.185Z,2.72
2022-08-12T06:55:20.905Z,2.65
2022-08-12T06:58:08.000Z,2.70
2022-08-12T07:00:46.827Z,2.72
2022-08-12T07:03:27.731Z,2.60
2022-08-12T07:06:03.615Z,2.58
2022-08-12T07:08:35.869Z,2.78
2022-08-12T07:11:12.107Z,2.70
2022-08-12T07:14:02.424Z,2.47
2022-08-12T07:16:57.606Z,3.35
2022-08-12T07:19:45.082Z,3.17
2022-08-12T07:22:17.909Z,3.00
2022-08-12T07:25:10.006Z,3.03
2022-08-12T07:27:43.465Z,3.03
2022-08-12T07:30:15.513Z,2.85
2022-08-12T07:32:49.826Z,2.67
2022-08-12T07:35:21.973Z,2.95
2022-08-12T07:37:54.255Z,2.63
2022-08-12T07:40:29.759Z,3.70
2022-08-12T07:43:01.723Z,2.88
2022-08-12T07:45:33.716Z,3.13
2022-08-12T07:48:06.313Z,3.10
2022-08-12T07:50:38.879Z,2.55
2022-08-12T07:53:11.325Z,2.65
2022-08-12T07:55:43.870Z,3.47
2022-08-12T07:58:16.070Z,3.10
2022-08-12T08:00:49.915Z,3.25
2022-08-12T08:03:22.978Z,2.45
2022-08-12T08:05:55.049Z,2.47
2022-08-12T08:08:28.987Z,2.38
2022-08-12T08:11:19.335Z,2.53
2022-08-12T08:13:51.304Z,2.40
2022-08-12T08:16:24.572Z,2.05
2022-08-12T08:18:59.594Z,2.33
2022-08-12T08:21:35.436Z,2.15
2022-08-12T08:24:16.565Z,1.70
2022-08-12T08:26:55.021Z,2.13
2022-08-12T08:29:27.407Z,1.98
2022-08-12T08:32:01.487Z,2.10
2022-08-12T08:34:53.895Z,2.13
2022-08-12T08:37:29.856Z,1.98
2022-08-12T08:40:26.723Z,1.70
2022-08-12T08:42:58.776Z,1.95
2022-08-12T08:45:31.381Z,2.20
2022-08-12T08:48:04.488Z,2.33
2022-08-12T08:50:36.441Z,2.15
2022-08-12T08:53:08.888Z,1.70
2022-08-12T08:56:03.710Z,1.60
2022-08-12T08:58:34.648Z,1.70
2022-08-12T09:01:07.021Z,2.30
2022-08-12T09:05:11.867Z,1.67
2022-08-12T09:06:37.364Z,1.83
2022-08-12T09:12:51.529Z,2.22
2022-08-12T09:15:34.911Z,1.85
2022-08-12T09:18:11.095Z,1.90
2022-08-12T09:20:43.843Z,1.75
2022-08-12T09:24:00.124Z,1.92
2022-08-12T09:26:09.829Z,1.90
2022-08-12T09:32:04.292Z,1.75
2022-08-12T09:34:34.113Z,1.98
2022-08-12T09:37:20.077Z,2.42
2022-08-12T09:40:05.245Z,2.42
2022-08-12T09:43:17.146Z,2.05
2022-08-12T09:46:19.707Z,3.00
2022-08-12T09:48:44.826Z,2.45
2022-08-12T09:51:37.293Z,2.05
2022-08-12T09:54:34.137Z,1.90
2022-08-12T09:58:08.125Z,1.63
2022-08-12T10:00:19.722Z,1.88
2022-08-12T10:03:05.593Z,1.95
2022-08-12T10:06:26.175Z,1.85
2022-08-12T10:08:40.029Z,1.70
2022-08-12T10:11:41.365Z,1.60
2022-08-12T10:14:35.315Z,2.28
2022-08-12T10:17:09.361Z,1.92
2022-08-12T10:19:51.519Z,2.30
2022-08-12T10:22:36.795Z,1.77
2022-08-12T10:26:18.415Z,1.65
2022-08-12T10:28:56.259Z,1.65
2022-08-12T10:31:46.928Z,1.63
2022-08-12T10:34:26.069Z,1.27
2022-08-12T10:37:22.520Z,1.50
2022-08-12T10:40:06.242Z,1.42
2022-08-12T10:43:01.641Z,1.40
2022-08-12T10:45:35.736Z,1.60
2022-08-12T10:48:21.693Z,1.80
2022-08-12T10:51:03.411Z,1.42
2022-08-12T10:53:44.510Z,1.60
2022-08-12T10:56:18.705Z,1.33
2022-08-12T10:58:52.176Z,2.83
2022-08-12T11:03:01.596Z,1.80
2022-08-12T11:04:29.683Z,1.20
2022-08-12T11:08:39.013Z,1.25
2022-08-12T11:10:01.825Z,1.05
2022-08-12T11:12:58.473Z,1.50
2022-08-12T11:16:04.346Z,1.30
2022-08-12T11:18:24.636Z,1.27
2022-08-12T11:20:57.831Z,1.10
2022-08-12T11:23:36.917Z,1.20
2022-08-12T11:26:09.603Z,1.15
2022-08-12T11:28:41.680Z,1.25
2022-08-12T11:31:14.456Z,1.27
2022-08-12T11:34:06.569Z,0.95
2022-08-12T11:36:56.970Z,1.13
2022-08-12T11:40:03.405Z,1.00
2022-08-12T11:42:32.183Z,1.02
2022-08-12T11:45:05.721Z,1.00
2022-08-12T11:47:42.415Z,1.10
2022-08-12T11:50:19.432Z,0.93
2022-08-12T11:52:56.645Z,0.90
2022-08-12T11:55:29.811Z,0.88
2022-08-12T11:58:34.031Z,1.23
2022-08-12T12:03:46.577Z,1.08
2022-08-12T12:06:21.022Z,1.00
2022-08-12T12:08:54.998Z,1.20
2022-08-12T12:11:27.119Z,0.95
2022-08-12T12:14:19.064Z,0.90
2022-08-12T12:17:10.284Z,1.10
2022-08-12T12:19:46.364Z,1.27
2022-08-12T12:22:23.359Z,1.13
2022-08-12T12:25:13.165Z,0.95
2022-08-12T12:28:04.669Z,0.88
2022-08-12T12:30:38.298Z,0.88
2022-08-12T12:33:17.680Z,0.70
2022-08-12T12:36:16.557Z,0.73
2022-08-12T12:38:42.710Z,0.70
2022-08-12T12:41:16.779Z,0.80
2022-08-12T12:43:56.448Z,0.73
2022-08-12T12:46:36.405Z,1.05
2022-08-12T12:49:11.115Z,0.85
2022-08-12T12:52:13.307Z,0.93
2022-08-12T12:54:52.671Z,1.00
2022-08-12T12:57:59.486Z,0.98
2022-08-12T13:00:19.756Z,0.90
2022-08-12T13:02:58.423Z,0.80
2022-08-12T13:05:42.041Z,0.85
2022-08-12T13:08:28.241Z,0.80
2022-08-12T13:11:08.165Z,1.15
2022-08-12T13:14:10.174Z,0.85
2022-08-12T13:16:36.712Z,1.00
2022-08-12T13:19:16.273Z,1.10
2022-08-12T13:22:15.830Z,0.90
2022-08-12T13:24:56.472Z,0.80
2022-08-12T13:32:56.752Z,1.02
2022-08-12T13:36:05.092Z,2.25
2022-08-12T13:38:45.235Z,1.30
2022-08-12T13:44:10.639Z,1.05
2022-08-12T13:46:42.949Z,1.20
2022-08-12T13:49:17.686Z,1.38
2022-08-12T13:52:08.617Z,1.38
2022-08-12T13:54:40.649Z,1.00
2022-08-12T13:57:17.209Z,1.08
2022-08-12T13:59:55.020Z,1.33
2022-08-12T14:02:27.876Z,1.33
2022-08-12T14:04:59.903Z,1.20
2022-08-12T14:07:48.709Z,1.27
2022-08-12T14:10:50.408Z,1.63
2022-08-12T14:14:05.504Z,1.10
2022-08-12T14:16:37.718Z,1.27
2022-08-12T14:19:22.525Z,1.40
2022-08-12T14:21:59.456Z,1.50
2022-08-12T14:24:40.381Z,1.30
2022-08-12T14:27:13.309Z,1.48
2022-08-12T14:30:04.412Z,1.40
2022-08-12T14:32:39.025Z,1.27
2022-08-12T14:35:11.244Z,1.50
2022-08-12T14:37:57.784Z,1.80
2022-08-12T14:40:31.203Z,1.30
2022-08-12T14:43:06.297Z,1.33
2022-08-12T14:45:46.937Z,1.20
2022-08-12T14:48:24.198Z,1.45
2022-08-12T14:52:16.190Z,1.65
2022-08-12T14:55:38.528Z,1.60
2022-08-12T14:59:57.638Z,1.42
2022-08-12T15:02:30.469Z,1.30
2022-08-12T15:05:08.204Z,1.48
2022-08-12T15:07:49.536Z,1.25
2022-08-12T15:10:30.096Z,1.23
2022-08-12T15:13:07.664Z,1.60
2022-08-12T15:15:45.730Z,1.35
2022-08-12T15:18:22.865Z,1.52
2022-08-12T15:21:03.579Z,1.27
2022-08-12T15:23:55.062Z,1.40
2022-08-12T15:26:35.710Z,1.35
2022-08-12T15:29:10.549Z,1.65
2022-08-12T15:32:00.499Z,1.10
2022-08-12T15:34:38.881Z,1.40
2022-08-12T15:37:10.873Z,2.03
2022-08-12T15:39:55.289Z,1.48
2022-08-12T15:42:34.299Z,1.27
2022-08-12T15:45:08.757Z,2.22
2022-08-12T15:47:49.549Z,1.88
2022-08-12T15:50:27.442Z,1.70
2022-08-12T15:53:14.289Z,1.92
2022-08-12T15:55:49.406Z,1.50
2022-08-12T15:58:24.778Z,1.70
2022-08-12T16:00:59.101Z,1.90
2022-08-12T16:03:46.503Z,1.73
2022-08-12T16:06:35.597Z,1.60
2022-08-12T16:10:04.802Z,1.50
2022-08-12T16:12:15.014Z,1.92
2022-08-12T16:14:47.455Z,2.03
2022-08-12T16:18:08.870Z,2.00
2022-08-12T16:20:22.735Z,1.75
2022-08-12T16:23:36.217Z,1.33
2022-08-12T16:26:14.534Z,1.80
2022-08-12T16:28:47.824Z,1.50
2022-08-12T16:31:23.041Z,1.73
2022-08-12T16:33:59.728Z,1.63
2022-08-12T16:36:33.020Z,1.42
2022-08-12T16:39:05.566Z,1.73
2022-08-12T16:41:39.817Z,1.50
2022-08-12T16:44:13.395Z,1.40
2022-08-12T16:46:57.948Z,2.00
2022-08-12T16:49:41.694Z,1.52
2022-08-12T16:52:16.418Z,1.75
2022-08-12T16:54:48.676Z,1.33
2022-08-12T16:57:34.551Z,1.50
2022-08-12T17:00:14.494Z,3.60
2022-08-12T17:02:54.817Z,1.77
2022-08-12T17:05:31.338Z,1.42
2022-08-12T17:08:10.777Z,1.42
2022-08-12T17:10:52.726Z,1.25
2022-08-12T17:13:28.435Z,1.27
2022-08-12T17:16:05.834Z,1.60
2022-08-12T17:18:57.744Z,1.30
2022-08-12T17:21:41.260Z,1.52
2022-08-12T17:24:30.324Z,1.75
2022-08-12T17:27:09.698Z,1.23
2022-08-12T17:30:02.034Z,1.50
2022-08-12T17:32:37.700Z,1.80
2022-08-12T17:35:29.859Z,2.00
2022-08-12T17:38:13.767Z,1.88
2022-08-12T17:40:47.664Z,1.88
2022-08-12T17:43:54.659Z,1.42
2022-08-12T17:46:23.621Z,1.42
2022-08-12T17:48:57.832Z,1.60
2022-08-12T17:51:32.952Z,1.60
2022-08-12T17:54:25.308Z,1.60
2022-08-12T17:56:57.952Z,2.00
2022-08-12T17:59:47.637Z,2.03
2022-08-12T18:02:30.065Z,2.17
2022-08-12T18:05:05.715Z,2.45
2022-08-12T18:07:46.278Z,1.67
2022-08-12T18:10:42.946Z,1.48
2022-08-12T18:13:37.743Z,2.00
2022-08-12T18:16:12.637Z,2.05
2022-08-12T18:18:45.889Z,2.00
2022-08-12T18:21:21.358Z,1.88
2022-08-12T18:23:56.578Z,1.48
2022-08-12T18:26:32.178Z,1.85
2022-08-12T18:29:06.137Z,2.15
2022-08-12T18:31:44.731Z,1.60
2022-08-12T18:34:32.776Z,1.98
2022-08-12T18:37:26.637Z,2.00
2022-08-12T18:40:17.791Z,1.60
2022-08-12T18:42:54.241Z,1.80
2022-08-12T18:45:31.603Z,1.80
2022-08-12T18:48:21.237Z,2.38
2022-08-12T18:51:09.653Z,2.38
2022-08-12T18:56:40.876Z,2.22
2022-08-12T19:00:02.301Z,1.83
2022-08-12T19:02:21.305Z,1.88
2022-08-12T19:04:57.493Z,1.85
2022-08-12T19:07:49.404Z,2.33
2022-08-12T19:10:23.390Z,2.55
2022-08-12T19:13:23.094Z,2.40
2022-08-12T19:15:57.896Z,2.03
2022-08-12T19:18:36.825Z,2.08
2022-08-12T19:21:17.039Z,1.77
2022-08-12T19:24:12.180Z,2.45
2022-08-12T19:26:45.982Z,2.08
2022-08-12T19:29:29.396Z,2.00
2022-08-12T19:32:28.367Z,2.80
2022-08-12T19:38:06.530Z,2.90
2022-08-12T19:40:43.008Z,3.03
2022-08-12T19:43:21.829Z,2.85
2022-08-12T19:45:56.625Z,10.70
2022-08-12T19:48:30.790Z,10.20
2022-08-12T19:51:08.806Z,7.28
2022-08-12T19:53:58.206Z,4.93
2022-08-12T19:56:32.385Z,3.50
2022-08-12T19:59:23.221Z,3.10
2022-08-12T20:02:03.408Z,2.55
2022-08-12T20:04:43.829Z,2.90
2022-08-12T20:07:23.449Z,2.80
2022-08-12T20:09:56.825Z,2.42
2022-08-12T20:12:32.961Z,2.85
2022-08-12T20:15:09.273Z,2.55
2022-08-12T20:17:51.294Z,2.47
2022-08-12T20:20:27.659Z,2.05
2022-08-12T20:23:00.702Z,2.20
2022-08-12T20:25:52.168Z,3.65
2022-08-12T20:28:29.229Z,10.43
2022-08-12T20:31:01.696Z,8.38
2022-08-12T20:33:56.089Z,4.05
2022-08-12T20:36:42.946Z,3.13
2022-08-12T20:39:51.930Z,2.97
2022-08-12T20:42:10.756Z,2.85
2022-08-12T20:44:43.278Z,2.40
2022-08-12T20:47:18.776Z,2.97
2022-08-12T20:49:55.443Z,3.30
2022-08-12T20:52:34.126Z,3.40
2022-08-12T20:55:15.566Z,3.03
2022-08-12T20:58:02.681Z,2.60
2022-08-12T21:00:37.058Z,3.40
2022-08-12T21:03:29.312Z,3.25
2022-08-12T21:06:22.339Z,3.17
2022-08-12T21:09:01.556Z,2.80
2022-08-12T21:11:36.583Z,3.05
2022-08-12T21:14:11.110Z,2.78
2022-08-12T21:16:52.547Z,2.80
2022-08-12T21:19:24.903Z,2.90
2022-08-12T21:22:24.857Z,2.53
2022-08-12T21:24:57.130Z,2.28
2022-08-12T21:27:57.815Z,3.10
2022-08-12T21:30:27.321Z,2.88
2022-08-12T21:33:10.603Z,2.72
2022-08-12T21:35:48.255Z,2.70
2022-08-12T21:38:22.163Z,2.42
2022-08-12T21:41:15.649Z,3.20
2022-08-12T21:43:50.423Z,3.22
2022-08-12T21:46:34.938Z,2.42
2022-08-12T21:49:09.656Z,2.67
2022-08-12T21:51:50.269Z,2.70
2022-08-12T21:54:24.329Z,3.08
2022-08-12T21:56:59.629Z,2.53
2022-08-12T21:59:31.601Z,2.78
2022-08-12T22:02:23.687Z,3.50
2022-08-12T22:05:23.925Z,2.67
2022-08-12T22:07:58.508Z,3.63
2022-08-12T22:10:30.495Z,2.65
2022-08-12T22:13:02.473Z,2.90
2022-08-12T22:15:34.484Z,2.35
2022-08-12T22:18:07.565Z,2.60
2022-08-12T22:20:42.203Z,3.50
2022-08-12T22:23:21.635Z,2.95
2022-08-12T22:26:11.865Z,3.00
2022-08-12T22:29:19.494Z,2.45
2022-08-12T22:31:54.638Z,3.22
2022-08-12T22:34:33.204Z,2.25
2022-08-12T22:37:05.864Z,2.28
2022-08-12T22:39:44.776Z,2.83
2022-08-12T22:42:35.893Z,2.30
2022-08-12T22:45:26.851Z,2.60
2022-08-12T22:47:59.308Z,2.17
2022-08-12T22:50:31.800Z,2.40
2022-08-12T22:53:17.114Z,2.53
2022-08-12T22:56:00.650Z,2.15
2022-08-12T22:58:41.527Z,2.60
2022-08-12T23:01:21.558Z,3.10
2022-08-12T23:04:15.635Z,2.47
2022-08-12T23:07:05.444Z,2.30
2022-08-12T23:09:47.912Z,2.65
2022-08-12T23:12:40.978Z,2.45
2022-08-12T23:15:19.341Z,2.40
2022-08-12T23:17:51.438Z,3.28
2022-08-12T23:20:26.886Z,2.78
2022-08-12T23:23:08.834Z,2.55
2022-08-12T23:25:55.148Z,3.67
2022-08-12T23:28:46.626Z,5.53
2022-08-12T23:31:27.064Z,6.32
2022-08-12T23:34:18.048Z,7.10
2022-08-12T23:36:51.603Z,5.68
2022-08-12T23:40:13.865Z,9.85
2022-08-12T23:42:16.425Z,9.80
2022-08-12T23:44:53.447Z,8.63
2022-08-12T23:47:27.675Z,9.05
2022-08-12T23:50:04.264Z,7.40
2022-08-12T23:52:48.889Z,8.88
2022-08-12T23:55:24.633Z,10.63
2022-08-12T23:58:21.726Z,6.03
